createdAt,value
2023-04-16T00:00:54.046Z,625.9231
2023-04-16T00:01:56.962Z,632.9231
2023-04-16T00:02:59.446Z,629.4615
2023-04-16T00:04:01.989Z,628.6154
2023-04-16T00:05:04.415Z,633.9231
2023-04-16T00:06:07.015Z,630.5385
2023-04-16T00:07:09.514Z,627.8461
2023-04-16T00:08:12.116Z,647.7692
2023-04-16T00:09:14.685Z,638.6923
2023-04-16T00:10:17.339Z,640.9231
2023-04-16T00:11:19.839Z,637.0000
2023-04-16T00:12:22.483Z,634.1539
2023-04-16T00:13:24.993Z,638.4615
2023-04-16T00:14:27.610Z,631.9231
2023-04-16T00:15:30.155Z,629.8461
2023-04-16T00:16:32.849Z,636.4615
2023-04-16T00:17:35.336Z,641.6923
2023-04-16T00:18:38.251Z,644.6923
2023-04-16T00:19:40.496Z,641.3077
2023-04-16T00:20:43.105Z,645.1539
2023-04-16T00:21:45.653Z,640.2308
2023-04-16T00:22:48.328Z,652.3846
2023-04-16T00:23:50.823Z,649.6154
2023-04-16T00:24:53.438Z,650.8461
2023-04-16T00:25:55.990Z,645.3077
2023-04-16T00:26:58.746Z,641.0000
2023-04-16T00:28:01.227Z,640.6923
2023-04-16T00:29:04.031Z,641.3077
2023-04-16T00:30:06.413Z,642.6154
2023-04-16T00:31:09.047Z,642.1539
2023-04-16T00:32:11.569Z,642.6923
2023-04-16T00:33:14.250Z,640.0769
2023-04-16T00:34:16.741Z,635.4615
2023-04-16T00:35:19.341Z,633.6923
2023-04-16T00:36:21.901Z,634.4615
2023-04-16T00:37:25.682Z,636.7692
2023-04-16T00:38:27.064Z,647.1667
2023-04-16T00:39:29.694Z,647.3077
2023-04-16T00:40:32.239Z,649.2308
2023-04-16T00:41:34.848Z,649.0769
2023-04-16T00:42:37.404Z,651.6154
2023-04-16T00:43:40.016Z,648.1539
2023-04-16T00:44:42.586Z,648.7692
2023-04-16T00:45:45.250Z,644.0769
2023-04-16T00:46:47.800Z,646.5385
2023-04-16T00:47:50.363Z,644.1539
2023-04-16T00:48:53.184Z,646.6923
2023-04-16T00:49:55.538Z,642.6923
2023-04-16T00:50:58.070Z,641.3846
2023-04-16T00:52:00.930Z,648.2308
2023-04-16T00:53:03.243Z,647.3077
2023-04-16T00:54:05.833Z,646.9231
2023-04-16T00:55:08.393Z,643.2308
2023-04-16T00:56:11.023Z,645.3846
2023-04-16T00:57:13.623Z,643.5385
2023-04-16T00:58:16.369Z,642.3077
2023-04-16T00:59:18.958Z,640.5385
2023-04-16T01:00:21.348Z,641.0000
2023-04-16T01:01:24.004Z,630.3846
2023-04-16T01:02:26.637Z,635.3846
2023-04-16T01:03:29.391Z,632.6154
2023-04-16T01:04:31.731Z,631.0000
2023-04-16T01:05:34.209Z,640.1539
2023-04-16T01:06:36.813Z,638.6154
2023-04-16T01:07:39.391Z,643.3077
2023-04-16T01:08:42.005Z,645.1539
2023-04-16T01:09:44.535Z,643.0000
2023-04-16T01:10:47.138Z,642.6923
2023-04-16T01:11:49.698Z,639.8461
2023-04-16T01:12:52.305Z,640.7692
2023-04-16T01:13:55.097Z,640.5385
2023-04-16T01:14:57.472Z,636.1539
2023-04-16T01:16:00.101Z,636.8461
2023-04-16T01:17:02.654Z,629.7692
2023-04-16T01:18:05.492Z,634.0769
2023-04-16T01:20:10.357Z,637.1539
2023-04-16T01:21:12.966Z,635.3846
2023-04-16T01:22:15.524Z,643.7692
2023-04-16T01:23:18.129Z,664.3846
2023-04-16T01:24:20.688Z,638.2308
2023-04-16T01:25:23.551Z,631.3846
2023-04-16T01:26:25.856Z,656.4615
2023-04-16T01:27:28.459Z,635.0000
2023-04-16T01:28:31.028Z,636.7692
2023-04-16T01:29:33.669Z,634.6923
2023-04-16T01:30:36.200Z,631.2308
2023-04-16T01:31:38.836Z,631.4615
2023-04-16T01:32:41.399Z,630.4615
2023-04-16T01:33:43.967Z,635.0769
2023-04-16T01:34:46.524Z,631.0769
2023-04-16T01:35:49.152Z,640.2308
2023-04-16T01:36:51.688Z,634.9231
2023-04-16T01:37:54.684Z,636.3077
2023-04-16T01:38:56.867Z,631.2308
2023-04-16T01:39:59.473Z,637.4615
2023-04-16T01:41:02.039Z,641.0000
2023-04-16T01:42:04.786Z,637.1539
2023-04-16T01:43:07.195Z,642.8461
2023-04-16T01:44:09.802Z,641.8461
2023-04-16T01:45:12.364Z,640.6923
2023-04-16T01:46:15.004Z,647.7692
2023-04-16T01:47:17.532Z,629.7692
2023-04-16T01:48:20.137Z,637.6154
2023-04-16T01:49:22.697Z,644.0769
2023-04-16T01:50:25.469Z,638.5385
2023-04-16T01:51:27.872Z,627.6154
2023-04-16T01:52:30.497Z,639.1539
2023-04-16T01:53:33.844Z,622.2308
2023-04-16T01:54:35.846Z,632.0769
2023-04-16T01:55:38.201Z,631.2308
2023-04-16T01:56:40.807Z,622.3846
2023-04-16T01:57:43.529Z,640.6154
2023-04-16T01:58:45.980Z,636.2308
2023-04-16T01:59:48.538Z,620.7692
2023-04-16T02:00:51.163Z,633.3846
2023-04-16T02:01:53.981Z,648.3846
2023-04-16T02:02:56.424Z,651.0769
2023-04-16T02:03:58.937Z,643.3846
2023-04-16T02:05:01.476Z,648.7692
2023-04-16T02:06:04.042Z,664.7692
2023-04-16T02:07:06.788Z,638.6923
2023-04-16T02:08:09.214Z,642.3077
2023-04-16T02:09:11.912Z,634.6923
2023-04-16T02:10:14.658Z,634.0769
2023-04-16T02:11:16.979Z,636.6154
2023-04-16T02:12:19.542Z,637.3846
2023-04-16T02:13:22.385Z,637.6154
2023-04-16T02:14:24.717Z,634.8461
2023-04-16T02:15:27.325Z,639.6154
2023-04-16T02:16:29.908Z,638.2308
2023-04-16T02:17:32.587Z,631.9231
2023-04-16T02:18:35.043Z,648.9231
2023-04-16T02:19:37.649Z,610.4615
2023-04-16T02:20:40.215Z,631.1539
2023-04-16T02:21:42.859Z,634.3077
2023-04-16T02:22:45.383Z,604.3846
2023-04-16T02:23:47.991Z,581.3077
2023-04-16T02:24:50.542Z,564.5385
2023-04-16T02:25:53.158Z,580.8461
2023-04-16T02:26:55.712Z,617.4615
2023-04-16T02:27:58.321Z,598.6154
2023-04-16T02:29:01.144Z,598.6154
2023-04-16T02:30:03.496Z,589.1539
2023-04-16T02:31:06.044Z,567.3846
2023-04-16T02:32:08.964Z,563.0769
2023-04-16T02:33:11.210Z,569.5385
2023-04-16T02:34:13.818Z,572.0769
2023-04-16T02:35:16.382Z,588.6154
2023-04-16T02:36:19.341Z,583.0769
2023-04-16T02:37:21.549Z,584.8461
2023-04-16T02:38:24.202Z,614.5385
2023-04-16T02:39:26.734Z,595.2308
2023-04-16T02:40:29.314Z,589.3077
2023-04-16T02:41:31.895Z,586.2308
2023-04-16T02:42:34.477Z,621.0000
2023-04-16T02:43:37.044Z,585.9231
2023-04-16T02:44:39.659Z,591.1539
2023-04-16T02:45:42.250Z,592.5385
2023-04-16T02:46:44.812Z,595.8461
2023-04-16T02:47:47.410Z,596.3846
2023-04-16T02:48:49.973Z,594.0769
2023-04-16T02:49:52.524Z,592.6154
2023-04-16T02:50:55.129Z,598.6154
2023-04-16T02:51:57.689Z,587.6154
2023-04-16T02:53:00.305Z,582.6923
2023-04-16T02:54:02.860Z,593.3077
2023-04-16T02:55:05.766Z,591.0769
2023-04-16T02:56:08.065Z,587.6923
2023-04-16T02:57:10.633Z,593.8461
2023-04-16T02:58:13.210Z,604.2308
2023-04-16T02:59:15.805Z,592.3077
2023-04-16T03:00:18.352Z,587.5385
2023-04-16T03:01:21.000Z,585.9231
2023-04-16T03:02:23.601Z,583.6154
2023-04-16T03:03:26.284Z,590.8461
2023-04-16T03:04:49.675Z,593.1539
2023-04-16T03:05:31.264Z,598.7778
2023-04-16T03:06:33.907Z,595.3846
2023-04-16T03:07:36.438Z,591.0769
2023-04-16T03:08:39.053Z,591.5385
2023-04-16T03:09:41.695Z,593.8461
2023-04-16T03:10:44.202Z,589.3846
2023-04-16T03:11:46.765Z,591.1539
2023-04-16T03:12:49.372Z,592.3846
2023-04-16T03:13:51.930Z,590.3846
2023-04-16T03:14:54.539Z,599.3077
2023-04-16T03:15:57.111Z,596.2308
2023-04-16T03:16:59.952Z,589.8461
2023-04-16T03:18:02.355Z,597.6154
2023-04-16T03:19:04.881Z,594.2308
2023-04-16T03:20:07.435Z,593.8461
2023-04-16T03:21:10.035Z,588.0769
2023-04-16T03:22:12.596Z,586.2308
2023-04-16T03:23:15.194Z,582.6923
2023-04-16T03:24:17.755Z,571.3846
2023-04-16T03:25:20.364Z,579.8461
2023-04-16T03:26:22.915Z,565.7692
2023-04-16T03:27:25.525Z,578.0769
2023-04-16T03:28:28.092Z,588.1539
2023-04-16T03:29:30.691Z,576.1539
2023-04-16T03:30:33.264Z,578.2308
2023-04-16T03:31:35.901Z,575.0000
2023-04-16T03:32:38.476Z,572.5385
2023-04-16T03:33:41.025Z,581.8461
2023-04-16T03:34:43.586Z,591.0000
2023-04-16T03:35:46.203Z,571.3077
2023-04-16T03:36:48.757Z,578.7692
2023-04-16T03:37:51.358Z,573.3846
2023-04-16T03:38:53.914Z,566.0000
2023-04-16T03:39:56.524Z,577.7692
2023-04-16T03:40:59.079Z,563.9231
2023-04-16T03:42:01.687Z,570.6154
2023-04-16T03:43:04.234Z,568.7692
2023-04-16T03:44:06.841Z,575.9231
2023-04-16T03:45:09.502Z,583.2308
2023-04-16T03:46:12.040Z,586.2308
2023-04-16T03:47:14.573Z,573.5385
2023-04-16T03:48:17.195Z,573.2308
2023-04-16T03:49:19.738Z,573.0769
2023-04-16T03:50:22.335Z,571.8461
2023-04-16T03:51:24.889Z,588.0000
2023-04-16T03:52:27.499Z,569.7692
2023-04-16T03:53:30.054Z,580.7692
2023-04-16T03:54:32.672Z,580.6154
2023-04-16T03:55:35.216Z,576.3846
2023-04-16T03:56:37.799Z,570.9231
2023-04-16T03:57:40.412Z,572.6923
2023-04-16T03:58:42.987Z,557.4615
2023-04-16T03:59:45.569Z,579.8461
2023-04-16T04:00:48.280Z,554.6923
2023-04-16T04:01:50.860Z,564.8461
2023-04-16T04:02:53.437Z,568.2308
2023-04-16T04:03:56.126Z,568.8461
2023-04-16T04:04:58.667Z,567.5385
2023-04-16T04:06:01.051Z,566.6923
2023-04-16T04:07:03.676Z,594.6154
2023-04-16T04:08:06.394Z,576.2308
2023-04-16T04:09:09.037Z,579.4615
2023-04-16T04:10:11.687Z,568.3077
2023-04-16T04:11:13.945Z,568.5385
2023-04-16T04:12:16.553Z,563.6154
2023-04-16T04:13:19.102Z,559.6923
2023-04-16T04:14:21.718Z,553.3077
2023-04-16T04:15:24.259Z,555.8461
2023-04-16T04:16:26.908Z,559.6154
2023-04-16T04:17:29.449Z,557.0769
2023-04-16T04:18:32.038Z,552.3846
2023-04-16T04:19:34.609Z,570.2308
2023-04-16T04:20:37.204Z,550.5385
2023-04-16T04:21:39.751Z,546.3077
2023-04-16T04:22:42.354Z,554.7692
2023-04-16T04:23:44.920Z,549.2308
2023-04-16T04:24:47.522Z,541.5385
2023-04-16T04:25:50.206Z,552.9231
2023-04-16T04:26:52.678Z,555.2308
2023-04-16T04:27:55.237Z,547.9231
2023-04-16T04:28:58.091Z,546.9231
2023-04-16T04:30:00.422Z,549.2308
2023-04-16T04:31:03.022Z,556.6154
2023-04-16T04:32:05.613Z,551.5385
2023-04-16T04:33:08.570Z,553.1539
2023-04-16T04:34:10.797Z,565.6923
2023-04-16T04:35:13.411Z,559.6923
2023-04-16T04:36:15.953Z,532.8461
2023-04-16T04:37:18.569Z,531.4615
2023-04-16T04:38:21.126Z,533.2308
2023-04-16T04:39:23.732Z,540.6923
2023-04-16T04:40:26.295Z,566.3846
2023-04-16T04:41:28.919Z,559.0000
2023-04-16T04:42:31.459Z,553.5385
2023-04-16T04:43:34.057Z,557.3077
2023-04-16T04:44:36.622Z,553.9231
2023-04-16T04:45:39.388Z,555.2308
2023-04-16T04:46:41.773Z,546.6154
2023-04-16T04:47:44.398Z,546.2308
2023-04-16T04:48:46.961Z,538.3846
2023-04-16T04:49:49.544Z,542.0000
2023-04-16T04:50:52.102Z,536.0769
2023-04-16T04:51:54.713Z,543.3846
2023-04-16T04:52:57.444Z,538.6154
2023-04-16T04:53:59.870Z,545.3077
2023-04-16T04:55:02.448Z,553.8461
2023-04-16T04:56:11.792Z,555.2308
2023-04-16T04:57:08.590Z,533.1539
2023-04-16T04:58:10.196Z,542.8461
2023-04-16T04:59:12.759Z,538.8461
2023-04-16T05:00:15.365Z,539.2308
2023-04-16T05:01:17.947Z,539.3846
2023-04-16T05:02:20.807Z,534.0000
2023-04-16T05:03:23.180Z,536.3077
2023-04-16T05:04:25.705Z,545.5385
2023-04-16T05:05:28.285Z,541.0769
2023-04-16T05:06:30.911Z,555.8461
2023-04-16T05:07:33.418Z,526.3846
2023-04-16T05:08:36.253Z,526.3846
2023-04-16T05:09:38.594Z,535.3077
2023-04-16T05:10:41.195Z,530.6923
2023-04-16T05:11:43.754Z,532.1539
2023-04-16T05:12:48.243Z,532.7692
2023-04-16T05:13:48.917Z,534.9231
2023-04-16T05:14:51.531Z,543.8461
2023-04-16T05:15:54.317Z,535.0000
2023-04-16T05:16:56.785Z,527.3077
2023-04-16T05:17:59.291Z,539.8461
2023-04-16T05:19:01.872Z,518.0769
2023-04-16T05:20:04.399Z,524.1539
2023-04-16T05:21:07.018Z,520.3077
2023-04-16T05:22:09.573Z,533.3846
2023-04-16T05:23:12.446Z,529.6154
2023-04-16T05:24:15.147Z,533.9231
2023-04-16T05:25:17.359Z,533.8461
2023-04-16T05:26:20.411Z,535.3077
2023-04-16T05:27:22.513Z,533.3846
2023-04-16T05:28:25.069Z,530.0769
2023-04-16T05:29:27.695Z,526.7692
2023-04-16T05:30:30.247Z,525.3077
2023-04-16T05:31:32.840Z,524.2308
2023-04-16T05:32:35.811Z,529.6154
2023-04-16T05:33:38.013Z,541.2308
2023-04-16T05:34:40.559Z,524.4615
2023-04-16T05:35:43.189Z,529.3846
2023-04-16T05:36:45.724Z,551.1539
2023-04-16T05:37:48.337Z,517.6154
2023-04-16T05:38:50.885Z,523.6154
2023-04-16T05:39:53.488Z,531.9231
2023-04-16T05:40:56.057Z,522.3077
2023-04-16T05:41:58.666Z,536.3077
2023-04-16T05:43:01.226Z,525.0000
2023-04-16T05:44:03.834Z,531.5385
2023-04-16T05:45:06.399Z,523.7692
2023-04-16T05:46:09.072Z,532.0769
2023-04-16T05:47:11.560Z,532.8461
2023-04-16T05:48:14.158Z,527.9231
2023-04-16T05:49:16.710Z,528.6154
2023-04-16T05:50:19.330Z,532.4615
2023-04-16T05:51:21.876Z,527.3846
2023-04-16T05:52:24.477Z,524.5385
2023-04-16T05:53:28.260Z,524.6923
2023-04-16T05:54:29.656Z,527.1539
2023-04-16T05:55:32.221Z,526.6923
2023-04-16T05:56:34.813Z,506.3846
2023-04-16T05:57:37.376Z,513.1539
2023-04-16T05:58:39.988Z,519.3846
2023-04-16T05:59:42.545Z,519.3846
2023-04-16T06:00:45.151Z,520.5385
2023-04-16T06:01:47.778Z,520.8461
2023-04-16T06:02:50.456Z,522.7692
2023-04-16T06:03:53.015Z,516.8461
2023-04-16T06:04:55.489Z,524.3846
2023-04-16T06:05:58.177Z,519.8461
2023-04-16T06:07:00.645Z,519.7692
2023-04-16T06:08:03.207Z,523.8461
2023-04-16T06:09:05.816Z,524.8461
2023-04-16T06:10:08.377Z,504.1538
2023-04-16T06:11:10.983Z,520.5385
2023-04-16T06:12:13.549Z,504.3077
2023-04-16T06:13:16.159Z,513.2308
2023-04-16T06:14:18.703Z,514.0769
2023-04-16T06:15:21.318Z,506.1538
2023-04-16T06:16:23.923Z,504.2308
2023-04-16T06:17:26.601Z,504.2308
2023-04-16T06:18:29.039Z,513.4615
2023-04-16T06:19:31.646Z,515.9231
2023-04-16T06:20:34.217Z,515.3077
2023-04-16T06:21:36.817Z,505.0769
2023-04-16T06:22:39.381Z,519.5385
2023-04-16T06:23:42.003Z,515.3077
2023-04-16T06:24:44.541Z,510.3077
2023-04-16T06:25:47.321Z,513.9231
2023-04-16T06:26:49.722Z,507.6923
2023-04-16T06:27:52.323Z,510.8462
2023-04-16T06:28:54.887Z,498.3846
2023-04-16T06:29:57.506Z,498.3846
2023-04-16T06:31:00.117Z,510.8462
2023-04-16T06:32:02.657Z,510.6154
2023-04-16T06:33:05.507Z,510.5385
2023-04-16T06:34:07.858Z,518.9231
2023-04-16T06:35:10.394Z,502.0769
2023-04-16T06:36:13.105Z,505.0769
2023-04-16T06:37:15.553Z,502.8462
2023-04-16T06:38:18.172Z,508.7692
2023-04-16T06:39:20.723Z,510.2308
2023-04-16T06:40:23.350Z,500.2308
2023-04-16T06:41:25.901Z,504.1538
2023-04-16T06:42:28.516Z,507.0769
2023-04-16T06:43:31.106Z,511.6154
2023-04-16T06:44:33.689Z,517.7692
2023-04-16T06:45:36.241Z,518.2308
2023-04-16T06:46:38.907Z,518.3846
2023-04-16T06:47:41.604Z,523.3077
2023-04-16T06:48:44.016Z,526.2308
2023-04-16T06:49:46.575Z,527.0769
2023-04-16T06:50:49.194Z,520.3846
2023-04-16T06:51:51.888Z,518.2308
2023-04-16T06:52:54.357Z,518.3846
2023-04-16T06:53:56.917Z,515.4615
2023-04-16T06:54:59.520Z,519.4615
2023-04-16T06:56:02.283Z,534.9231
2023-04-16T06:57:04.690Z,523.2308
2023-04-16T06:58:07.247Z,513.4615
2023-04-16T06:59:10.069Z,516.8461
2023-04-16T07:00:12.450Z,510.7692
2023-04-16T07:01:15.028Z,508.8462
2023-04-16T07:02:17.697Z,509.6923
2023-04-16T07:03:20.286Z,517.4615
2023-04-16T07:04:22.804Z,517.0000
2023-04-16T07:05:25.351Z,514.6154
2023-04-16T07:06:27.948Z,525.7692
2023-04-16T07:07:30.526Z,532.0000
2023-04-16T07:08:33.111Z,522.0000
2023-04-16T07:09:35.693Z,513.0000
2023-04-16T07:10:38.287Z,517.0769
2023-04-16T07:11:40.839Z,517.7692
2023-04-16T07:12:43.450Z,515.5385
2023-04-16T07:13:46.006Z,517.0769
2023-04-16T07:14:48.608Z,521.9231
2023-04-16T07:15:51.172Z,562.8461
2023-04-16T07:16:53.895Z,521.5385
2023-04-16T07:17:56.418Z,512.9231
2023-04-16T07:18:58.944Z,513.4615
2023-04-16T07:20:01.531Z,505.3846
2023-04-16T07:21:04.106Z,517.5385
2023-04-16T07:22:06.668Z,566.9231
2023-04-16T07:23:09.294Z,571.0769
2023-04-16T07:24:11.832Z,572.2308
2023-04-16T07:25:14.453Z,546.0000
2023-04-16T07:26:17.028Z,539.9231
2023-04-16T07:27:19.623Z,568.6154
2023-04-16T07:28:22.181Z,638.9231
2023-04-16T07:29:24.791Z,615.3846
2023-04-16T07:30:27.356Z,592.9231
2023-04-16T07:31:29.985Z,603.9231
2023-04-16T07:32:32.889Z,626.0769
2023-04-16T07:33:35.122Z,621.5385
2023-04-16T07:34:37.685Z,609.6923
2023-04-16T07:35:40.550Z,605.6154
2023-04-16T07:36:42.861Z,604.6154
2023-04-16T07:37:45.463Z,612.5385
2023-04-16T07:38:48.016Z,609.0000
2023-04-16T07:39:50.628Z,605.0769
2023-04-16T07:40:53.184Z,607.0769
2023-04-16T07:41:55.810Z,626.7692
2023-04-16T07:42:58.354Z,630.5385
2023-04-16T07:44:00.964Z,649.1539
2023-04-16T07:45:03.524Z,634.8461
2023-04-16T07:46:06.225Z,630.5385
2023-04-16T07:47:08.690Z,639.2308
2023-04-16T07:48:11.307Z,630.3846
2023-04-16T07:49:13.868Z,644.7692
2023-04-16T07:50:16.460Z,660.4615
2023-04-16T07:51:19.010Z,674.4615
2023-04-16T07:52:21.621Z,689.3846
2023-04-16T07:53:24.164Z,671.6923
2023-04-16T07:54:28.862Z,691.3846
2023-04-16T07:55:29.334Z,705.5385
2023-04-16T07:56:31.931Z,673.6154
2023-04-16T07:57:34.487Z,667.8461
2023-04-16T07:58:37.150Z,660.2308
2023-04-16T07:59:39.791Z,688.7692
2023-04-16T08:00:42.483Z,699.3846
2023-04-16T08:01:44.809Z,717.1539
2023-04-16T08:02:47.510Z,762.0000
2023-04-16T08:03:50.136Z,793.3077
2023-04-16T08:04:52.731Z,792.0769
2023-04-16T08:05:55.135Z,793.3846
2023-04-16T08:06:57.736Z,802.5385
2023-04-16T08:08:00.295Z,778.3846
2023-04-16T08:09:02.901Z,766.0769
2023-04-16T08:10:05.470Z,759.0769
2023-04-16T08:11:08.058Z,777.1539
2023-04-16T08:12:10.623Z,862.4615
2023-04-16T08:13:13.218Z,849.3077
2023-04-16T08:14:15.777Z,806.7692
2023-04-16T08:15:18.381Z,809.7692
2023-04-16T08:16:20.966Z,816.0769
2023-04-16T08:17:23.693Z,775.5385
2023-04-16T08:18:26.282Z,850.0000
2023-04-16T08:19:28.709Z,934.5385
2023-04-16T08:20:31.286Z,972.5385
2023-04-16T08:21:33.875Z,924.6923
2023-04-16T08:22:36.437Z,982.9231
2023-04-16T08:23:39.033Z,804.7692
2023-04-16T08:24:41.600Z,658.4615
2023-04-16T08:25:44.187Z,910.6154
2023-04-16T08:26:46.761Z,1369.2307
2023-04-16T08:27:49.361Z,1375.9231
2023-04-16T08:28:51.915Z,1932.7693
2023-04-16T08:29:54.532Z,2252.6155
2023-04-16T08:30:57.140Z,2087.2307
2023-04-16T08:31:59.767Z,2229.0769
2023-04-16T08:33:02.275Z,1949.6154
2023-04-16T08:34:04.868Z,2592.6155
2023-04-16T08:35:07.420Z,3022.3845
2023-04-16T08:36:10.020Z,3297.6924
2023-04-16T08:37:12.594Z,3353.6155
2023-04-16T08:38:15.183Z,3251.0769
2023-04-16T08:39:17.813Z,3358.0769
2023-04-16T08:40:20.426Z,3455.0000
2023-04-16T08:41:22.974Z,3312.3076
2023-04-16T08:42:25.585Z,3274.6924
2023-04-16T08:43:28.138Z,3333.7693
2023-04-16T08:44:30.751Z,3424.6924
2023-04-16T08:45:33.314Z,3466.3076
2023-04-16T08:46:35.913Z,3494.7693
2023-04-16T08:47:38.504Z,3461.7693
2023-04-16T08:48:41.066Z,3421.0769
2023-04-16T08:49:43.617Z,3412.6924
2023-04-16T08:50:46.235Z,3469.0000
2023-04-16T08:51:48.785Z,3602.3076
2023-04-16T08:52:51.395Z,3610.6924
2023-04-16T08:53:53.955Z,3621.6924
2023-04-16T08:54:57.247Z,3697.6155
2023-04-16T08:55:59.113Z,3780.4614
2023-04-16T08:57:01.719Z,3796.4614
2023-04-16T08:58:04.273Z,3808.0000
2023-04-16T08:59:07.120Z,4000.4614
2023-04-16T09:00:09.442Z,3903.1538
2023-04-16T09:01:12.044Z,3969.0000
2023-04-16T09:02:14.675Z,3841.1538
2023-04-16T09:03:17.887Z,3811.9231
2023-04-16T09:04:19.827Z,3900.0769
2023-04-16T09:05:22.388Z,3955.3076
2023-04-16T09:06:24.915Z,4141.4614
2023-04-16T09:07:27.536Z,4120.9229
2023-04-16T09:08:30.070Z,4630.4614
2023-04-16T09:09:34.542Z,4639.3076
2023-04-16T09:10:35.237Z,5145.0771
2023-04-16T09:11:38.124Z,5194.5386
2023-04-16T09:12:40.388Z,4729.0000
2023-04-16T09:13:42.990Z,4698.9229
2023-04-16T09:14:45.553Z,4863.6152
2023-04-16T09:15:48.159Z,4801.0000
2023-04-16T09:16:50.731Z,4905.0771
2023-04-16T09:17:53.365Z,4773.3848
2023-04-16T09:18:55.904Z,5056.6152
2023-04-16T09:19:58.484Z,5322.3848
2023-04-16T09:21:01.046Z,5729.0000
2023-04-16T09:22:03.659Z,5810.5386
2023-04-16T09:23:06.201Z,5710.2310
2023-04-16T09:24:08.856Z,5653.2310
2023-04-16T09:25:11.381Z,5650.0771
2023-04-16T09:26:13.981Z,5759.8462
2023-04-16T09:27:16.533Z,5792.6152
2023-04-16T09:28:19.140Z,5706.6924
2023-04-16T09:29:21.686Z,5658.2310
2023-04-16T09:30:24.345Z,5811.5386
2023-04-16T09:31:26.877Z,5855.2310
2023-04-16T09:32:29.519Z,5907.6924
2023-04-16T09:33:34.470Z,5989.6924
2023-04-16T09:34:34.638Z,5763.2310
2023-04-16T09:35:37.189Z,5795.3076
2023-04-16T09:36:39.801Z,5929.0771
2023-04-16T09:37:42.351Z,4603.6924
2023-04-16T09:38:44.961Z,3286.3845
2023-04-16T09:39:47.521Z,3477.8462
2023-04-16T09:40:50.125Z,3700.4614
2023-04-16T09:41:52.687Z,3826.0769
2023-04-16T09:42:55.286Z,4005.8462
2023-04-16T09:43:57.845Z,4221.6924
2023-04-16T09:45:02.645Z,3866.4614
2023-04-16T09:46:07.448Z,3543.6924
2023-04-16T09:47:06.651Z,3634.0769
2023-04-16T09:48:08.178Z,3663.0769
2023-04-16T09:49:11.050Z,3488.3845
2023-04-16T09:50:14.020Z,3518.5386
2023-04-16T09:51:15.948Z,3580.3076
2023-04-16T09:52:18.504Z,3726.9231
2023-04-16T09:53:21.111Z,3843.3076
2023-04-16T09:54:23.670Z,2872.7693
2023-04-16T09:55:26.275Z,1311.4615
2023-04-16T09:56:28.831Z,735.0000
2023-04-16T09:57:31.445Z,531.2308
2023-04-16T09:58:33.998Z,500.7692
2023-04-16T09:59:36.627Z,1306.3846
2023-04-16T10:00:43.167Z,1678.2307
2023-04-16T10:01:41.843Z,1583.6923
2023-04-16T10:02:44.369Z,1677.3077
2023-04-16T10:03:47.155Z,1799.3077
2023-04-16T10:04:49.688Z,1743.5385
2023-04-16T10:05:52.118Z,1436.3077
2023-04-16T10:06:54.666Z,1338.3846
2023-04-16T10:07:57.279Z,1412.3846
2023-04-16T10:08:59.845Z,1587.2307
2023-04-16T10:10:02.464Z,1745.9231
2023-04-16T10:11:04.999Z,1814.6154
2023-04-16T10:12:07.620Z,1843.8462
2023-04-16T10:13:10.185Z,1895.7693
2023-04-16T10:14:12.782Z,1872.7693
2023-04-16T10:15:15.340Z,1862.3846
2023-04-16T10:16:17.989Z,1859.3846
2023-04-16T10:17:20.490Z,1849.4615
2023-04-16T10:18:23.094Z,1846.3077
2023-04-16T10:19:25.660Z,1849.9231
2023-04-16T10:20:28.267Z,1839.0000
2023-04-16T10:21:30.826Z,1855.3077
2023-04-16T10:22:33.425Z,1841.2307
2023-04-16T10:23:35.977Z,1839.9231
2023-04-16T10:24:38.633Z,1840.6154
2023-04-16T10:25:41.149Z,1854.2307
2023-04-16T10:26:43.768Z,1844.2307
2023-04-16T10:27:46.299Z,1879.7693
2023-04-16T10:28:48.908Z,1856.6154
2023-04-16T10:29:51.477Z,1846.0769
2023-04-16T10:30:54.133Z,1864.3077
2023-04-16T10:31:56.616Z,1861.1538
2023-04-16T10:33:00.543Z,1896.8462
2023-04-16T10:34:01.779Z,1952.3077
2023-04-16T10:35:04.392Z,1965.3846
2023-04-16T10:36:07.853Z,1972.3077
2023-04-16T10:37:09.557Z,1993.9231
2023-04-16T10:38:12.103Z,2024.0769
2023-04-16T10:39:16.765Z,2029.3846
2023-04-16T10:40:17.317Z,2041.0000
2023-04-16T10:41:19.881Z,2071.5386
2023-04-16T10:42:22.429Z,2081.6155
2023-04-16T10:43:25.035Z,2038.0000
2023-04-16T10:44:27.578Z,2035.3077
2023-04-16T10:45:30.191Z,2062.1538
2023-04-16T10:46:32.786Z,2059.0000
2023-04-16T10:47:35.384Z,2053.0000
2023-04-16T10:48:48.767Z,2057.2307
2023-04-16T10:49:41.505Z,2062.4614
2023-04-16T10:50:43.076Z,2042.0000
2023-04-16T10:51:45.677Z,2012.7693
2023-04-16T10:52:48.225Z,2038.1538
2023-04-16T10:53:50.826Z,2033.1538
2023-04-16T10:54:53.391Z,2026.0769
2023-04-16T10:55:56.000Z,2044.4615
2023-04-16T10:56:58.559Z,2029.1538
2023-04-16T10:58:01.146Z,2042.8462
2023-04-16T10:59:03.710Z,2047.0000
2023-04-16T11:00:06.316Z,2030.6154
2023-04-16T11:01:08.876Z,2026.5385
2023-04-16T11:02:11.555Z,2027.3077
2023-04-16T11:03:14.087Z,2048.6155
2023-04-16T11:04:16.715Z,2053.1538
2023-04-16T11:05:19.211Z,2021.3077
2023-04-16T11:06:21.810Z,2026.2307
2023-04-16T11:07:24.364Z,2030.3077
2023-04-16T11:08:26.979Z,2032.3077
2023-04-16T11:09:29.528Z,2038.4615
2023-04-16T11:10:32.143Z,2025.0000
2023-04-16T11:11:34.703Z,2031.3846
2023-04-16T11:12:37.504Z,2013.6923
2023-04-16T11:13:40.073Z,2023.3846
2023-04-16T11:14:42.465Z,2028.9231
2023-04-16T11:15:45.087Z,2015.2307
2023-04-16T11:16:47.633Z,2014.3077
2023-04-16T11:17:50.236Z,2012.0769
2023-04-16T11:18:53.946Z,2025.3077
2023-04-16T11:19:55.362Z,2008.3846
2023-04-16T11:20:57.959Z,1986.3077
2023-04-16T11:22:00.538Z,2009.3846
2023-04-16T11:23:03.126Z,1998.4615
2023-04-16T11:24:05.710Z,1977.6154
2023-04-16T11:25:08.289Z,1985.5385
2023-04-16T11:26:10.881Z,1986.0769
2023-04-16T11:27:13.431Z,1976.0000
2023-04-16T11:28:16.047Z,1995.7693
2023-04-16T11:29:18.606Z,2013.7693
2023-04-16T11:30:21.216Z,2000.3846
2023-04-16T11:31:23.806Z,1984.3077
2023-04-16T11:32:26.399Z,1990.3846
2023-04-16T11:33:28.935Z,1993.6923
2023-04-16T11:34:31.541Z,1992.9231
2023-04-16T11:35:34.111Z,1989.1538
2023-04-16T11:36:36.733Z,2000.5385
2023-04-16T11:37:39.268Z,2004.1538
2023-04-16T11:38:41.863Z,1984.3077
2023-04-16T11:39:44.430Z,1975.1538
2023-04-16T11:40:47.036Z,1959.2307
2023-04-16T11:41:49.600Z,1983.2307
2023-04-16T11:42:52.200Z,1978.0000
2023-04-16T11:43:54.797Z,1972.7693
2023-04-16T11:44:57.376Z,1975.1538
2023-04-16T11:45:59.926Z,1983.6923
2023-04-16T11:47:02.591Z,1984.2307
2023-04-16T11:48:05.104Z,1976.2307
2023-04-16T11:49:07.827Z,1975.5385
2023-04-16T11:50:10.265Z,1983.9231
2023-04-16T11:51:12.853Z,1967.6923
2023-04-16T11:52:15.404Z,1965.9231
2023-04-16T11:53:18.031Z,1979.8462
2023-04-16T11:54:20.583Z,1972.0000
2023-04-16T11:55:23.177Z,1954.3077
2023-04-16T11:56:25.743Z,1956.6154
2023-04-16T11:57:28.358Z,1948.4615
2023-04-16T11:58:30.897Z,1942.4615
2023-04-16T11:59:33.508Z,1947.1538
2023-04-16T12:00:36.070Z,1933.7693
2023-04-16T12:01:38.667Z,1937.3077
2023-04-16T12:02:41.362Z,1951.0000
2023-04-16T12:03:44.253Z,1942.4615
2023-04-16T12:04:46.522Z,1927.9231
2023-04-16T12:05:48.992Z,1913.8462
2023-04-16T12:06:51.557Z,1896.0769
2023-04-16T12:07:54.152Z,1900.3077
2023-04-16T12:08:56.710Z,1907.3846
2023-04-16T12:09:59.488Z,1898.0000